createdAt,value
2023-01-21T00:01:07.635Z,96686.64
2023-01-21T00:03:35.491Z,96689.12
2023-01-21T00:06:03.745Z,96694.33
2023-01-21T00:08:31.590Z,96693.35
2023-01-21T00:11:06.735Z,96698.09
2023-01-21T00:13:35.731Z,96702.97
2023-01-21T00:16:04.311Z,96710.88
2023-01-21T00:18:32.426Z,96720.74
2023-01-21T00:21:00.484Z,96727.89
2023-01-21T00:23:29.432Z,96732.79
2023-01-21T00:25:58.240Z,96734.13
2023-01-21T00:28:30.188Z,96734.96
2023-01-21T00:30:59.198Z,96737.36
2023-01-21T00:33:27.952Z,96732.63
2023-01-21T00:36:05.011Z,96734.06
2023-01-21T00:38:33.204Z,96738.33
2023-01-21T00:41:06.124Z,96737.91
2023-01-21T00:43:34.000Z,96736.80
2023-01-21T00:46:02.307Z,96738.30
2023-01-21T00:48:30.238Z,96735.89
2023-01-21T00:51:01.446Z,96735.33
2023-01-21T00:53:30.776Z,96742.39
2023-01-21T00:56:00.252Z,96747.36
2023-01-21T00:58:29.164Z,96748.00
2023-01-21T01:01:01.666Z,96749.68
2023-01-21T01:03:30.472Z,96753.80
2023-01-21T01:06:06.388Z,96757.74
2023-01-21T01:08:34.417Z,96762.58
2023-01-21T01:11:02.766Z,96754.80
2023-01-21T01:13:31.232Z,96760.49
2023-01-21T01:16:00.222Z,96762.11
2023-01-21T01:18:29.684Z,96764.02
2023-01-21T01:20:58.115Z,96768.19
2023-01-21T01:23:26.223Z,96767.45
2023-01-21T01:25:55.346Z,96772.39
2023-01-21T01:28:23.206Z,96781.00
2023-01-21T01:30:51.799Z,96786.34
2023-01-21T01:33:20.120Z,96791.95
2023-01-21T01:35:48.659Z,96792.23
2023-01-21T01:38:17.614Z,96796.05
2023-01-21T01:40:46.187Z,96795.26
2023-01-21T01:43:19.007Z,96801.23
2023-01-21T01:45:47.928Z,96803.98
2023-01-21T01:48:21.070Z,96811.41
2023-01-21T01:50:49.548Z,96809.12
2023-01-21T01:53:18.836Z,96805.11
2023-01-21T01:55:47.339Z,96802.79
2023-01-21T01:58:16.428Z,96811.05
2023-01-21T02:00:44.649Z,96814.48
2023-01-21T02:03:31.442Z,96819.46
2023-01-21T02:05:59.529Z,96819.53
2023-01-21T02:08:27.863Z,96820.50
2023-01-21T02:10:56.710Z,96818.06
2023-01-21T02:13:27.338Z,96816.88
2023-01-21T02:16:04.266Z,96818.20
2023-01-21T02:18:41.450Z,96822.97
2023-01-21T02:21:20.998Z,96830.50
2023-01-21T02:23:48.849Z,96833.02
2023-01-21T02:26:19.492Z,96832.77
2023-01-21T02:29:05.959Z,96838.17
2023-01-21T02:31:40.117Z,96837.21
2023-01-21T02:34:11.089Z,96835.15
2023-01-21T02:36:54.071Z,96831.95
2023-01-21T02:39:31.964Z,96833.06
2023-01-21T02:42:08.133Z,96836.19
2023-01-21T02:44:39.204Z,96834.75
2023-01-21T02:47:15.157Z,96832.49
2023-01-21T02:49:52.135Z,96829.53
2023-01-21T02:52:21.141Z,96830.80
2023-01-21T02:54:59.706Z,96831.09
2023-01-21T02:57:33.411Z,96829.38
2023-01-21T03:00:02.750Z,96830.50
2023-01-21T03:02:33.930Z,96835.88
2023-01-21T03:05:16.398Z,96838.59
2023-01-21T03:07:49.735Z,96841.11
2023-01-21T03:10:22.455Z,96846.86
2023-01-21T03:12:56.077Z,96849.97
2023-01-21T03:15:45.607Z,96853.48
2023-01-21T03:18:18.525Z,96859.31
2023-01-21T03:20:58.529Z,96866.91
2023-01-21T03:23:32.719Z,96870.77
2023-01-21T03:26:01.064Z,96875.08
2023-01-21T03:28:31.983Z,96883.78
2023-01-21T03:31:20.286Z,96888.04
2023-01-21T03:33:52.165Z,96896.61
2023-01-21T03:36:38.627Z,96903.42
2023-01-21T03:39:18.717Z,96902.96
2023-01-21T03:41:46.715Z,96900.21
2023-01-21T03:44:14.792Z,96899.95
2023-01-21T03:46:58.069Z,96906.87
2023-01-21T03:49:31.515Z,96904.70
2023-01-21T03:52:01.284Z,96908.94
2023-01-21T03:54:29.315Z,96913.94
2023-01-21T03:56:57.166Z,96915.52
2023-01-21T03:59:25.147Z,96917.41
2023-01-21T04:01:53.251Z,96921.61
2023-01-21T04:04:21.182Z,96926.61
2023-01-21T04:06:49.417Z,96932.30
2023-01-21T04:09:17.229Z,96928.67
2023-01-21T04:11:45.186Z,96932.40
2023-01-21T04:14:13.081Z,96933.31
2023-01-21T04:16:41.100Z,96937.20
2023-01-21T04:19:09.166Z,96940.45
2023-01-21T04:21:37.294Z,96946.34
2023-01-21T04:24:05.416Z,96953.28
2023-01-21T04:26:33.275Z,96954.10
2023-01-21T04:29:01.044Z,96961.90
2023-01-21T04:31:29.023Z,96968.96
2023-01-21T04:33:56.923Z,96974.10
2023-01-21T04:36:24.801Z,96981.34
2023-01-21T04:38:52.837Z,96985.56
2023-01-21T04:41:20.952Z,96987.26
2023-01-21T04:43:48.934Z,96986.05
2023-01-21T04:46:17.052Z,96977.71
2023-01-21T04:48:44.868Z,96975.79
2023-01-21T04:51:12.881Z,96976.14
2023-01-21T04:53:40.943Z,96976.95
2023-01-21T04:56:08.834Z,96977.66
2023-01-21T04:58:36.827Z,96975.48
2023-01-21T05:01:04.805Z,96969.42
2023-01-21T05:03:32.887Z,96967.98
2023-01-21T05:06:00.778Z,96980.23
2023-01-21T05:08:28.757Z,96992.99
2023-01-21T05:10:56.903Z,96988.86
2023-01-21T05:13:24.896Z,96987.88
2023-01-21T05:15:52.983Z,96994.42
2023-01-21T05:18:20.813Z,96996.25
2023-01-21T05:20:48.813Z,96997.17
2023-01-21T05:23:16.720Z,96999.52
2023-01-21T05:25:44.550Z,97002.91
2023-01-21T05:28:12.511Z,97007.65
2023-01-21T05:30:41.811Z,97010.79
2023-01-21T05:33:11.195Z,97018.34
2023-01-21T05:35:39.115Z,97024.11
2023-01-21T05:38:07.696Z,97028.52
2023-01-21T05:40:35.611Z,97026.77
2023-01-21T05:43:03.682Z,97019.75
2023-01-21T05:45:31.624Z,97016.40
2023-01-21T05:47:59.674Z,97026.11
2023-01-21T05:50:27.735Z,97031.93
2023-01-21T05:52:55.600Z,97031.05
2023-01-21T05:55:23.397Z,97032.21
2023-01-21T05:57:51.409Z,97028.71
2023-01-21T06:00:19.728Z,97032.09
2023-01-21T06:02:47.900Z,97036.98
2023-01-21T06:05:15.979Z,97046.62
2023-01-21T06:07:44.794Z,97060.28
2023-01-21T06:10:13.615Z,97067.60
2023-01-21T06:12:41.665Z,97072.75
2023-01-21T06:15:10.597Z,97083.27
2023-01-21T06:17:39.866Z,97084.41
2023-01-21T06:20:08.159Z,97081.61
2023-01-21T06:22:36.515Z,97083.12
2023-01-21T06:25:04.647Z,97086.20
2023-01-21T06:27:34.268Z,97096.63
2023-01-21T06:30:02.163Z,97097.64
2023-01-21T06:32:30.233Z,97092.64
2023-01-21T06:34:58.170Z,97099.70
2023-01-21T06:37:26.472Z,97110.29
2023-01-21T06:39:54.473Z,97112.09
2023-01-21T06:42:22.406Z,97106.27
2023-01-21T06:44:50.529Z,97113.07
2023-01-21T06:47:18.718Z,97119.87
2023-01-21T06:49:46.674Z,97122.80
2023-01-21T06:52:14.832Z,97124.46
2023-01-21T06:54:43.612Z,97131.38
2023-01-21T06:57:12.131Z,97137.10
2023-01-21T06:59:40.176Z,97135.09
2023-01-21T07:02:10.484Z,97140.02
2023-01-21T07:04:38.373Z,97150.91
2023-01-21T07:07:06.397Z,97154.11
2023-01-21T07:09:34.216Z,97154.86
2023-01-21T07:12:03.817Z,97154.86
2023-01-21T07:14:31.660Z,97156.90
2023-01-21T07:16:59.532Z,97156.23
2023-01-21T07:19:28.139Z,97153.52
2023-01-21T07:21:56.063Z,97143.39
2023-01-21T07:24:23.873Z,97144.55
2023-01-21T07:26:56.887Z,97150.55
2023-01-21T07:29:24.888Z,97151.38
2023-01-21T07:31:53.048Z,97155.73
2023-01-21T07:34:21.033Z,97160.03
2023-01-21T07:36:49.176Z,97169.48
2023-01-21T07:39:17.145Z,97175.05
2023-01-21T07:41:45.294Z,97171.56
2023-01-21T07:44:13.294Z,97174.77
2023-01-21T07:46:41.504Z,97175.36
2023-01-21T07:49:12.893Z,97181.92
2023-01-21T07:51:41.776Z,97193.56
2023-01-21T07:54:11.075Z,97196.05
2023-01-21T07:56:39.657Z,97195.34
2023-01-21T07:59:09.992Z,97194.73
2023-01-21T08:01:38.032Z,97202.80
2023-01-21T08:04:07.207Z,97209.77
2023-01-21T08:06:35.192Z,97222.24
2023-01-21T08:09:03.380Z,97224.36
2023-01-21T08:11:31.449Z,97223.36
2023-01-21T08:13:59.412Z,97228.90
2023-01-21T08:16:27.372Z,97231.58
2023-01-21T08:18:55.320Z,97234.21
2023-01-21T08:21:23.223Z,97232.05
2023-01-21T08:23:51.454Z,97226.67
2023-01-21T08:26:20.156Z,97223.42
2023-01-21T08:28:48.105Z,97226.20
2023-01-21T08:31:16.351Z,97228.27
2023-01-21T08:33:44.329Z,97224.75
2023-01-21T08:36:12.205Z,97232.02
2023-01-21T08:38:40.821Z,97238.17
2023-01-21T08:41:08.757Z,97239.85
2023-01-21T08:43:37.228Z,97239.24
2023-01-21T08:46:05.588Z,97252.48
2023-01-21T08:48:33.606Z,97260.97
2023-01-21T08:51:01.868Z,97270.40
2023-01-21T08:53:34.011Z,97277.95
2023-01-21T08:56:03.447Z,97283.22
2023-01-21T08:58:31.913Z,97291.33
2023-01-21T09:00:59.887Z,97292.40
2023-01-21T09:03:29.889Z,97291.56
2023-01-21T09:06:00.509Z,97293.58
2023-01-21T09:08:29.337Z,97290.67
2023-01-21T09:11:00.896Z,97295.48
2023-01-21T09:13:30.266Z,97294.64
2023-01-21T09:15:59.043Z,97294.70
2023-01-21T09:18:26.942Z,97294.10
2023-01-21T09:20:59.664Z,97290.36
2023-01-21T09:23:28.222Z,97293.84
2023-01-21T09:26:03.770Z,97297.40
2023-01-21T09:28:33.292Z,97296.02
2023-01-21T09:31:06.049Z,97303.65
2023-01-21T09:33:35.961Z,97307.67
2023-01-21T09:36:04.931Z,97303.18
2023-01-21T09:38:33.877Z,97295.56
2023-01-21T09:41:13.018Z,97294.91
2023-01-21T09:43:43.941Z,97297.71
2023-01-21T09:46:18.124Z,97296.45
2023-01-21T09:48:47.951Z,97296.98
2023-01-21T09:51:29.257Z,97295.70
2023-01-21T09:53:59.047Z,97300.73
2023-01-21T09:56:36.124Z,97309.63
2023-01-21T09:59:07.368Z,97317.91
2023-01-21T10:01:37.297Z,97322.72
2023-01-21T10:04:40.766Z,97329.59
2023-01-21T10:07:15.637Z,97319.55
2023-01-21T10:09:58.748Z,97310.59
2023-01-21T10:12:31.902Z,97305.60
2023-01-21T10:15:00.000Z,97296.63
2023-01-21T10:17:34.897Z,97294.35
2023-01-21T10:20:15.043Z,97290.05
2023-01-21T10:22:46.913Z,97289.12
2023-01-21T10:25:31.745Z,97290.25
2023-01-21T10:28:02.795Z,97282.80
2023-01-21T10:30:39.387Z,97283.30
2023-01-21T10:33:12.661Z,97280.12
2023-01-21T10:36:01.269Z,97277.43
2023-01-21T10:38:29.288Z,97278.52
2023-01-21T10:41:06.938Z,97272.59
2023-01-21T10:43:36.059Z,97271.80
2023-01-21T10:46:15.177Z,97274.75
2023-01-21T10:48:55.274Z,97273.48
2023-01-21T10:51:23.835Z,97272.71
2023-01-21T10:54:16.265Z,97265.67
2023-01-21T10:57:22.548Z,97267.10
2023-01-21T10:59:51.421Z,97275.20
2023-01-21T11:02:27.896Z,97283.64
2023-01-21T11:04:58.478Z,97284.70
2023-01-21T11:07:27.208Z,97289.10
2023-01-21T11:09:55.984Z,97298.31
2023-01-21T11:12:25.302Z,97308.45
2023-01-21T11:15:08.058Z,97313.73
2023-01-21T11:17:37.993Z,97315.84
2023-01-21T11:20:16.697Z,97302.42
2023-01-21T11:22:46.371Z,97288.40
2023-01-21T11:25:32.839Z,97289.08
2023-01-21T11:28:00.803Z,97297.83
2023-01-21T11:30:49.374Z,97297.67
2023-01-21T11:33:21.462Z,97291.96
2023-01-21T11:35:50.232Z,97287.50
2023-01-21T11:38:23.234Z,97285.67
2023-01-21T11:40:59.740Z,97283.39
2023-01-21T11:43:40.421Z,97292.13
2023-01-21T11:46:21.440Z,97295.27
2023-01-21T11:48:50.403Z,97280.54
2023-01-21T11:51:18.474Z,97273.91
2023-01-21T11:53:46.837Z,97271.01
2023-01-21T11:56:16.825Z,97273.58
2023-01-21T11:58:45.182Z,97278.33
2023-01-21T12:01:20.699Z,97284.55
2023-01-21T12:03:48.854Z,97278.62
2023-01-21T12:06:30.603Z,97270.33
2023-01-21T12:09:02.553Z,97271.98
2023-01-21T12:11:31.707Z,97275.27
2023-01-21T12:14:18.606Z,97280.04
2023-01-21T12:17:06.550Z,97278.83
2023-01-21T12:19:37.604Z,97265.27
2023-01-21T12:22:05.670Z,97256.45
2023-01-21T12:24:46.434Z,97253.45
2023-01-21T12:27:20.783Z,97256.40
2023-01-21T12:30:07.293Z,97262.27
2023-01-21T12:33:01.812Z,97265.95
2023-01-21T12:35:40.636Z,97265.94
2023-01-21T12:38:16.839Z,97267.99
2023-01-21T12:40:44.886Z,97273.23
2023-01-21T12:43:28.702Z,97288.50
2023-01-21T12:45:59.459Z,97301.44
2023-01-21T12:48:35.875Z,97302.13
2023-01-21T12:51:09.631Z,97294.05
2023-01-21T12:53:44.401Z,97288.40
2023-01-21T12:56:24.776Z,97287.59
2023-01-21T12:59:19.484Z,97294.09
2023-01-21T13:01:53.475Z,97299.19
2023-01-21T13:04:21.398Z,97297.02
2023-01-21T13:07:01.385Z,97290.67
2023-01-21T13:09:29.439Z,97290.44
2023-01-21T13:12:06.534Z,97292.34
2023-01-21T13:14:47.970Z,97288.98
2023-01-21T13:17:18.986Z,97282.92
2023-01-21T13:19:48.189Z,97279.76
2023-01-21T13:22:16.012Z,97282.10
2023-01-21T13:25:03.285Z,97287.04
2023-01-21T13:27:37.555Z,97286.88
2023-01-21T13:30:08.301Z,97290.20
2023-01-21T13:32:54.864Z,97290.66
2023-01-21T13:35:26.109Z,97295.50
2023-01-21T13:38:12.476Z,97297.73
2023-01-21T13:40:43.722Z,97296.64
2023-01-21T13:43:24.474Z,97298.24
2023-01-21T13:46:12.864Z,97299.48
2023-01-21T13:48:40.856Z,97300.16
2023-01-21T13:51:09.021Z,97295.61
2023-01-21T13:53:39.895Z,97295.38
2023-01-21T13:56:13.702Z,97290.50
2023-01-21T13:59:04.412Z,97295.96
2023-01-21T14:01:38.995Z,97298.86
2023-01-21T14:04:14.103Z,97295.58
2023-01-21T14:06:55.816Z,97292.71
2023-01-21T14:09:29.639Z,97291.13
2023-01-21T14:12:01.551Z,97299.79
2023-01-21T14:14:44.933Z,97300.85
2023-01-21T14:17:27.865Z,97303.85
2023-01-21T14:20:14.393Z,97307.41
2023-01-21T14:22:42.430Z,97314.64
2023-01-21T14:25:13.673Z,97316.90
2023-01-21T14:27:41.560Z,97319.36
2023-01-21T14:30:14.755Z,97326.94
2023-01-21T14:33:06.789Z,97329.71
2023-01-21T14:35:41.521Z,97332.58
2023-01-21T14:38:13.629Z,97335.93
2023-01-21T14:40:45.983Z,97342.86
2023-01-21T14:43:32.198Z,97342.05
2023-01-21T14:46:00.907Z,97340.65
2023-01-21T14:48:39.864Z,97339.38
2023-01-21T14:51:07.905Z,97342.31
2023-01-21T14:53:49.422Z,97344.49
2023-01-21T14:56:31.770Z,97346.27
2023-01-21T14:59:02.098Z,97345.18
2023-01-21T15:01:32.128Z,97348.18
2023-01-21T15:04:02.794Z,97352.54
2023-01-21T15:06:35.454Z,97352.23
2023-01-21T15:09:05.499Z,97349.41
2023-01-21T15:11:37.878Z,97345.59
2023-01-21T15:14:13.686Z,97345.63
2023-01-21T15:16:43.088Z,97352.73
2023-01-21T15:19:11.236Z,97348.30
2023-01-21T15:21:45.283Z,97350.20
2023-01-21T15:24:21.187Z,97352.38
2023-01-21T15:27:08.129Z,97353.32
2023-01-21T15:29:37.533Z,97353.13
2023-01-21T15:32:19.246Z,97352.67
2023-01-21T15:34:48.714Z,97355.81
2023-01-21T15:37:19.634Z,97361.52
2023-01-21T15:39:48.568Z,97366.85
2023-01-21T15:42:22.886Z,97370.39
2023-01-21T15:45:06.147Z,97369.73
2023-01-21T15:47:44.028Z,97370.45
2023-01-21T15:50:18.049Z,97378.62
2023-01-21T15:52:51.987Z,97378.96
2023-01-21T15:55:26.055Z,97382.66
2023-01-21T15:57:54.115Z,97385.54
2023-01-21T16:00:40.634Z,97387.23
2023-01-21T16:03:13.197Z,97396.48
2023-01-21T16:05:41.323Z,97396.76
2023-01-21T16:08:09.963Z,97397.09
2023-01-21T16:10:47.143Z,97387.73
2023-01-21T16:13:18.341Z,97387.60
2023-01-21T16:15:52.240Z,97390.11
2023-01-21T16:18:21.091Z,97394.86
2023-01-21T16:20:52.804Z,97403.44
2023-01-21T16:23:22.432Z,97406.08
2023-01-21T16:25:52.598Z,97407.02
2023-01-21T16:28:21.318Z,97415.46
2023-01-21T16:30:54.167Z,97417.84
2023-01-21T16:33:22.965Z,97428.63
2023-01-21T16:35:52.265Z,97428.48
2023-01-21T16:38:22.440Z,97422.10
2023-01-21T16:40:58.989Z,97424.20
2023-01-21T16:43:27.862Z,97424.73
2023-01-21T16:45:57.297Z,97426.65
2023-01-21T16:48:26.692Z,97426.41
2023-01-21T16:50:55.080Z,97433.86
2023-01-21T16:53:23.814Z,97435.87
2023-01-21T16:55:56.314Z,97433.13
2023-01-21T16:58:32.575Z,97440.35
2023-01-21T17:01:11.156Z,97439.03
2023-01-21T17:03:39.491Z,97433.38
2023-01-21T17:06:13.477Z,97429.23
2023-01-21T17:08:44.981Z,97425.64
2023-01-21T17:11:13.167Z,97428.23
2023-01-21T17:13:42.453Z,97436.27
2023-01-21T17:16:18.939Z,97436.56
2023-01-21T17:18:53.383Z,97441.81
2023-01-21T17:21:31.281Z,97444.61
2023-01-21T17:24:04.720Z,97446.09
2023-01-21T17:26:41.866Z,97444.05
2023-01-21T17:29:26.318Z,97440.48
2023-01-21T17:31:55.864Z,97427.79
2023-01-21T17:34:28.202Z,97427.16
2023-01-21T17:36:56.604Z,97435.97
2023-01-21T17:39:43.391Z,97444.20
2023-01-21T17:42:18.736Z,97451.33
2023-01-21T17:44:48.845Z,97458.00
2023-01-21T17:47:22.101Z,97462.82
2023-01-21T17:49:59.501Z,97468.19
2023-01-21T17:52:27.979Z,97471.59
2023-01-21T17:55:16.584Z,97472.04
2023-01-21T17:57:44.664Z,97473.28
2023-01-21T18:00:32.551Z,97482.45
2023-01-21T18:03:00.578Z,97487.34
2023-01-21T18:05:29.033Z,97488.45
2023-01-21T18:07:58.099Z,97494.34
2023-01-21T18:10:27.178Z,97493.65
2023-01-21T18:12:57.114Z,97493.15
2023-01-21T18:15:27.282Z,97499.95
2023-01-21T18:17:58.063Z,97500.95
2023-01-21T18:20:27.495Z,97497.11
2023-01-21T18:22:56.590Z,97497.92
2023-01-21T18:25:26.320Z,97495.20
2023-01-21T18:27:54.956Z,97496.33
2023-01-21T18:30:27.333Z,97503.58
2023-01-21T18:32:56.039Z,97508.35
2023-01-21T18:35:28.713Z,97509.70
2023-01-21T18:37:56.871Z,97512.13
2023-01-21T18:40:24.779Z,97512.58
2023-01-21T18:42:55.518Z,97513.59
2023-01-21T18:45:26.043Z,97512.33
2023-01-21T18:47:54.763Z,97510.91
2023-01-21T18:50:26.872Z,97512.69
2023-01-21T18:52:56.862Z,97508.10
2023-01-21T18:55:27.625Z,97503.63
2023-01-21T18:57:57.039Z,97506.48
2023-01-21T19:00:26.885Z,97512.79
2023-01-21T19:02:56.122Z,97518.02
2023-01-21T19:05:25.514Z,97517.08
2023-01-21T19:07:53.485Z,97514.35
2023-01-21T19:10:21.779Z,97516.21
2023-01-21T19:12:50.677Z,97520.49
2023-01-21T19:15:19.648Z,97526.66
2023-01-21T19:17:48.413Z,97532.38
2023-01-21T19:20:18.229Z,97530.36
2023-01-21T19:22:46.854Z,97525.05
2023-01-21T19:25:15.741Z,97525.97
2023-01-21T19:27:46.247Z,97527.86
2023-01-21T19:30:25.737Z,97526.76
2023-01-21T19:32:54.914Z,97525.93
2023-01-21T19:35:34.116Z,97523.73
2023-01-21T19:38:03.624Z,97519.25
2023-01-21T19:40:31.672Z,97517.55
2023-01-21T19:43:00.157Z,97522.80
2023-01-21T19:45:29.568Z,97519.33
2023-01-21T19:47:58.355Z,97518.71
2023-01-21T19:50:27.118Z,97520.94
2023-01-21T19:52:55.406Z,97516.63
2023-01-21T19:55:24.526Z,97508.89
2023-01-21T19:58:00.701Z,97509.86
2023-01-21T20:00:31.523Z,97506.20
2023-01-21T20:02:59.720Z,97507.16
2023-01-21T20:05:28.891Z,97513.48
2023-01-21T20:07:57.192Z,97509.84
2023-01-21T20:10:27.827Z,97512.33
2023-01-21T20:12:55.879Z,97520.98
2023-01-21T20:15:29.893Z,97525.27
2023-01-21T20:18:03.720Z,97528.63
2023-01-21T20:20:32.745Z,97535.48
2023-01-21T20:23:01.051Z,97539.30
2023-01-21T20:25:36.877Z,97543.35
2023-01-21T20:28:19.382Z,97544.28
2023-01-21T20:30:48.288Z,97547.03
2023-01-21T20:33:17.520Z,97547.62
2023-01-21T20:35:47.649Z,97554.95
2023-01-21T20:38:17.646Z,97555.92
2023-01-21T20:40:45.487Z,97550.02
2023-01-21T20:43:13.803Z,97551.36
2023-01-21T20:45:42.793Z,97543.06
2023-01-21T20:48:17.917Z,97535.55
2023-01-21T20:50:45.936Z,97533.91
2023-01-21T20:53:13.773Z,97552.79
2023-01-21T20:55:43.553Z,97561.80
2023-01-21T20:58:12.593Z,97563.25
2023-01-21T21:00:41.833Z,97567.52
2023-01-21T21:03:10.019Z,97566.09
2023-01-21T21:05:37.966Z,97571.93
2023-01-21T21:08:05.912Z,97566.95
2023-01-21T21:10:36.140Z,97558.31
2023-01-21T21:13:04.494Z,97561.50
2023-01-21T21:15:34.035Z,97565.23
2023-01-21T21:18:03.829Z,97571.75
2023-01-21T21:20:32.976Z,97577.55
2023-01-21T21:23:01.070Z,97584.60
2023-01-21T21:25:30.597Z,97598.45
2023-01-21T21:27:58.764Z,97601.20
2023-01-21T21:30:31.086Z,97598.51
2023-01-21T21:33:00.813Z,97595.79
2023-01-21T21:35:34.138Z,97597.17
2023-01-21T21:38:11.444Z,97595.33
2023-01-21T21:40:39.394Z,97591.60
2023-01-21T21:43:25.890Z,97589.23
2023-01-21T21:46:12.440Z,97589.52
2023-01-21T21:48:42.411Z,97588.44
2023-01-21T21:51:14.094Z,97583.77
2023-01-21T21:53:42.146Z,97584.06
2023-01-21T21:56:14.157Z,97584.25
2023-01-21T21:58:41.998Z,97583.98
2023-01-21T22:01:16.984Z,97580.08
2023-01-21T22:03:45.040Z,97578.69
2023-01-21T22:06:12.992Z,97584.09
2023-01-21T22:08:42.647Z,97583.62
2023-01-21T22:11:13.947Z,97581.42
2023-01-21T22:13:43.575Z,97582.85
2023-01-21T22:16:13.434Z,97584.80
2023-01-21T22:18:41.854Z,97585.19
2023-01-21T22:21:13.214Z,97586.43
2023-01-21T22:23:41.840Z,97582.16
2023-01-21T22:26:13.108Z,97578.12
2023-01-21T22:28:41.801Z,97576.45
2023-01-21T22:31:14.319Z,97572.36
2023-01-21T22:33:42.423Z,97570.71
2023-01-21T22:36:11.799Z,97575.84
2023-01-21T22:38:40.918Z,97570.20
2023-01-21T22:41:10.067Z,97567.27
2023-01-21T22:43:50.704Z,97569.41
2023-01-21T22:46:20.471Z,97576.42
2023-01-21T22:48:48.338Z,97573.52
2023-01-21T22:51:18.530Z,97563.60
2023-01-21T22:53:46.707Z,97559.45
2023-01-21T22:56:15.514Z,97566.95
2023-01-21T22:58:43.842Z,97580.85
2023-01-21T23:01:31.265Z,97588.65
2023-01-21T23:04:00.173Z,97593.75
2023-01-21T23:06:28.535Z,97592.32
2023-01-21T23:08:56.389Z,97588.44
2023-01-21T23:11:24.476Z,97583.29
2023-01-21T23:13:54.483Z,97587.86
2023-01-21T23:16:22.479Z,97584.44
2023-01-21T23:18:50.604Z,97590.67
2023-01-21T23:21:20.306Z,97604.27
2023-01-21T23:23:48.868Z,97606.54
2023-01-21T23:26:19.289Z,97600.30
2023-01-21T23:28:47.373Z,97607.98
2023-01-21T23:31:16.831Z,97610.52
2023-01-21T23:33:48.776Z,97601.69
2023-01-21T23:36:16.979Z,97597.67
2023-01-21T23:38:45.127Z,97602.66
2023-01-21T23:41:14.193Z,97608.42
2023-01-21T23:43:42.352Z,97610.88
2023-01-21T23:46:19.774Z,97611.98
2023-01-21T23:48:48.122Z,97607.33
2023-01-21T23:51:16.985Z,97606.52
2023-01-21T23:53:46.150Z,97604.86
2023-01-21T23:56:24.058Z,97608.40
2023-01-21T23:58:52.466Z,97606.16
